Greenfield, Illinois
Current Conditions -  °F | °C
As of 1:55 AM on Friday 31 Oct 2014 (Local Time) from KIJX Reporting Station
Overcast Overcast  
Wind Chill: 44°   Ceiling: 7500
Heat Index: 46°   Visibility: 7mi
Dew Point: 43°   Wind: 5mph
Humidity: 89%   Direction: 330°NNW
Pressure: 30.1"   Gusts: NA
Location:  39.34°N, 90.21°W
Report Text: KIJX 310655Z AUTO 33004KT 7SM OVC075 08/06 A3010 RMK AO2 T00780061
Loading
Personal Weather Stations






























Interactive Weather Map
Tropical Storm Tracking
New forecast layout! Learn more

10-Day Weather Forecast

Advertisements
Track Severe Weather on mobile